Monument Beach, Massachusetts
Current Conditions -  °F | °C
As of 3:55 AM on Saturday 22 Nov 2014 (Local Time) from KFMH Reporting Station
Clear Clear  
Wind Chill: 17°   Ceiling: Unl
Heat Index: 25°   Visibility: 10mi
Dew Point: 14°   Wind: 7mph
Humidity: 64%   Direction: 280°W
Pressure: 30.44"   Gusts: NA
Location:  41.72°N, 70.61°W
Report Text: KFMH 220855Z AUTO 28006KT 10SM CLR M04/M10 A3044 RMK AO2
Loading
Personal Weather Stations






























Interactive Weather Map New forecast layout! Learn more

10-Day Weather Forecast

Advertisements
Track Severe Weather on mobile